Time;durP1;ratioP1;P1;durP2;ratioP2;P2;SDS_P1;SDS_P2;PMS_P1;PMS_P2;Temp;Humidity;BMP_temperature;BMP_pressure;BME280_temperature;BME280_humidity;BME280_pressure;Samples;Min_cycle;Max_cycle;Signal;HPM_P1;HPM_P2
2021/01/29 00:00:33;;;;;;;;;30.75;26.50;;;;;0.20;96.03;98329.38;5010576;28;8897;-51
2021/01/29 00:03:06;;;;;;;;;28.75;27.50;;;;;0.34;95.84;98322.66;5011284;28;8921;-52
2021/01/29 00:05:51;;;;;;;;;31.00;22.00;;;;;0.32;96.14;98325.38;5011840;28;8878;-52
2021/01/29 00:08:19;;;;;;;;;30.25;24.00;;;;;0.33;96.11;98319.16;5026328;28;8884;-50
2021/01/29 00:10:47;;;;;;;;;30.00;24.25;;;;;0.46;95.87;98308.94;4999961;28;8875;-52
2021/01/29 00:13:15;;;;;;;;;37.75;31.00;;;;;0.42;96.43;98315.28;5026956;28;8836;-52
2021/01/29 00:15:43;;;;;;;;;36.75;24.75;;;;;0.36;96.51;98319.03;5010990;28;8827;-50
2021/01/29 00:18:12;;;;;;;;;32.25;22.00;;;;;0.33;95.86;98318.31;5011666;28;8839;-51
2021/01/29 00:20:39;;;;;;;;;38.75;26.00;;;;;0.33;96.39;98313.88;5025999;28;8839;-50
2021/01/29 00:23:07;;;;;;;;;39.00;26.50;;;;;0.38;95.74;98308.41;5011293;28;8842;-52
2021/01/29 00:25:38;;;;;;;;;26.75;25.75;;;;;0.40;95.85;98307.44;5011512;28;8855;-52
2021/01/29 00:28:07;;;;;;;;;32.00;21.50;;;;;0.37;95.75;98299.66;5011697;28;8869;-49
2021/01/29 00:30:36;;;;;;;;;37.00;30.00;;;;;0.31;96.37;98293.75;5011588;28;8953;-54
2021/01/29 00:33:06;;;;;;;;;37.25;25.00;;;;;0.37;96.27;98306.69;5011271;28;9598;-54
2021/01/29 00:35:35;;;;;;;;;43.50;27.50;;;;;0.27;97.01;98303.59;5007922;28;8847;-52
2021/01/29 00:38:05;;;;;;;;;40.00;29.25;;;;;0.35;97.03;98300.63;5011733;28;8854;-51
2021/01/29 00:40:33;;;;;;;;;32.75;29.00;;;;;0.25;97.10;98304.59;5011924;28;8938;-52
2021/01/29 00:43:00;;;;;;;;;43.50;31.00;;;;;0.46;96.38;98302.81;5011503;28;8853;-50
2021/01/29 00:45:31;;;;;;;;;23.25;19.25;;;;;0.41;97.02;98300.38;5010972;28;8831;-52
2021/01/29 00:47:58;;;;;;;;;45.25;31.50;;;;;0.44;96.41;98308.16;5025868;28;8835;-51
2021/01/29 00:50:28;;;;;;;;;41.50;31.50;;;;;0.51;96.60;98311.41;5011779;28;8878;-50
2021/01/29 00:52:57;;;;;;;;;35.00;33.25;;;;;0.53;96.53;98310.41;5010289;28;8842;-53
2021/01/29 00:55:24;;;;;;;;;26.25;24.00;;;;;0.40;96.85;98303.94;5010772;28;9036;-50
2021/01/29 00:57:51;;;;;;;;;48.00;36.00;;;;;0.37;97.26;98299.66;5012919;28;9695;-53
2021/01/29 01:00:20;;;;;;;;;42.75;36.00;;;;;0.37;97.38;98298.75;5014445;28;8978;-50
2021/01/29 01:02:47;;;;;;;;;52.25;40.00;;;;;0.42;97.30;98296.78;5004273;28;8846;-51
2021/01/29 01:05:18;;;;;;;;;39.25;30.00;;;;;0.44;97.29;98294.94;5014411;28;8976;-54
2021/01/29 01:07:45;;;;;;;;;50.00;36.00;;;;;0.59;97.37;98298.72;5013131;28;8846;-52
2021/01/29 01:10:14;;;;;;;;;40.50;35.00;;;;;0.38;96.76;98304.00;5027339;28;9642;-52
2021/01/29 01:12:41;;;;;;;;;45.25;35.50;;;;;0.47;96.93;98305.38;5003113;28;8843;-53
2021/01/29 01:15:19;;;;;;;;;41.00;30.25;;;;;0.36;97.14;98304.97;5030542;28;9588;-53
2021/01/29 01:17:47;;;;;;;;;36.50;30.00;;;;;0.41;97.88;98297.72;5014330;28;8870;-52
2021/01/29 01:20:18;;;;;;;;;56.50;37.75;;;;;0.40;97.28;98301.31;5014560;28;8889;-53
2021/01/29 01:22:45;;;;;;;;;47.75;33.75;;;;;0.36;97.55;98308.47;5014195;28;8854;-54
2021/01/29 01:25:13;;;;;;;;;43.00;36.75;;;;;0.50;97.68;98310.56;5014552;28;8847;-55
2021/01/29 01:27:40;;;;;;;;;43.75;38.00;;;;;0.64;97.58;98302.03;5030539;28;8843;-54
2021/01/29 01:30:15;;;;;;;;;51.50;31.00;;;;;0.46;97.13;98298.38;5013422;28;8987;-53
2021/01/29 01:32:42;;;;;;;;;41.50;30.25;;;;;0.44;97.02;98301.06;5014125;28;8847;-56
2021/01/29 01:35:11;;;;;;;;;47.25;33.00;;;;;0.47;97.43;98309.81;5023390;28;8856;-54
2021/01/29 01:37:39;;;;;;;;;50.50;34.00;;;;;0.40;97.63;98311.88;5016368;28;8870;-55
2021/01/29 01:40:08;;;;;;;;;47.50;38.75;;;;;0.51;97.73;98311.41;5013942;28;8855;-53
2021/01/29 01:42:35;;;;;;;;;47.00;33.50;;;;;0.59;96.79;98310.13;5014088;28;8843;-51
2021/01/29 01:45:57;;;;;;;;;49.25;36.00;;;;;0.42;97.22;98307.34;5029260;28;8937;-55
2021/01/29 01:48:56;;;;;;;;;39.50;30.50;;;;;0.55;96.94;98313.81;5013568;28;8874;-54
2021/01/29 01:51:33;;;;;;;;;40.25;30.00;;;;;0.55;97.35;98308.53;5014714;28;8851;-51
2021/01/29 01:54:13;;;;;;;;;51.50;33.25;;;;;0.51;96.97;98312.25;5012498;28;8839;-52
2021/01/29 01:56:52;;;;;;;;;50.25;38.75;;;;;0.47;96.95;98301.88;5016633;28;8836;-50
2021/01/29 01:59:26;;;;;;;;;43.00;32.50;;;;;0.48;97.51;98301.81;5030275;28;8908;-51
2021/01/29 02:01:56;;;;;;;;;44.00;32.50;;;;;0.56;97.47;98299.72;5017319;28;8913;-51
2021/01/29 02:04:30;;;;;;;;;46.75;33.00;;;;;0.47;97.37;98299.25;5017563;28;8941;-50
2021/01/29 02:07:08;;;;;;;;;51.25;34.50;;;;;0.52;97.35;98300.75;5032254;28;8847;-53
2021/01/29 02:09:40;;;;;;;;;39.25;24.50;;;;;0.62;97.41;98299.44;5010593;28;8883;-53
2021/01/29 02:12:08;;;;;;;;;41.50;32.50;;;;;0.67;97.11;98286.03;5012167;28;8835;-51
2021/01/29 02:14:35;;;;;;;;;51.00;38.50;;;;;0.64;96.36;98279.09;5013001;28;8879;-53
2021/01/29 02:17:43;;;;;;;;;47.00;37.50;;;;;0.54;96.88;98275.16;5013388;28;9894;-53
2021/01/29 02:20:38;;;;;;;;;42.50;29.50;;;;;0.65;96.49;98277.31;5006451;28;8854;-52
2021/01/29 02:23:23;;;;;;;;;37.75;32.25;;;;;0.67;96.83;98271.97;5012838;28;8955;-54
2021/01/29 02:26:33;;;;;;;;;37.50;30.00;;;;;0.72;96.64;98276.13;5013397;28;8889;-54
2021/01/29 02:29:23;;;;;;;;;48.00;34.50;;;;;0.74;96.44;98282.19;5012741;28;8877;-50
2021/01/29 02:32:27;;;;;;;;;48.50;33.75;;;;;0.49;96.57;98277.13;5029353;28;8835;-54
2021/01/29 02:35:17;;;;;;;;;51.00;35.00;;;;;0.56;96.26;98289.16;5012045;28;8869;-54
2021/01/29 02:37:56;;;;;;;;;47.25;33.75;;;;;0.56;96.30;98286.50;5012075;28;8842;-53
2021/01/29 02:40:41;;;;;;;;;47.75;33.25;;;;;0.49;96.76;98292.97;5011955;28;8901;-56
2021/01/29 02:43:43;;;;;;;;;45.50;37.25;;;;;0.58;96.58;98297.88;5011912;28;8819;-53
2021/01/29 02:46:50;;;;;;;;;39.50;28.50;;;;;0.53;96.68;98297.22;5024304;28;8871;-55
2021/01/29 02:49:26;;;;;;;;;6.25;6.25;;;;;0.56;96.50;98304.13;5007032;28;8889;-53
2021/01/29 02:52:20;;;;;;;;;58.00;43.00;;;;;0.46;97.09;98298.38;5013084;28;8890;-53
2021/01/29 02:55:25;;;;;;;;;49.75;36.75;;;;;0.68;96.27;98313.28;5012622;28;8831;-55
2021/01/29 02:58:20;;;;;;;;;37.00;24.75;;;;;0.56;96.65;98318.19;5002324;28;8846;-54
2021/01/29 03:01:00;;;;;;;;;49.00;26.75;;;;;0.50;96.21;98315.84;5027896;28;8893;-54
2021/01/29 03:04:34;;;;;;;;;51.75;40.50;;;;;0.35;96.57;98309.41;5011593;28;8855;-56
2021/01/29 03:07:37;;;;;;;;;61.25;43.00;;;;;0.40;96.96;98296.03;4981906;28;8858;-51
2021/01/29 03:10:17;;;;;;;;;64.25;50.50;;;;;0.45;97.92;98304.59;5027044;28;8874;-55
2021/01/29 03:12:51;;;;;;;;;52.25;42.25;;;;;0.57;96.59;98311.97;5011755;28;8940;-53
2021/01/29 03:16:01;;;;;;;;;69.75;45.75;;;;;0.44;97.23;98313.44;5020584;28;8843;-55
2021/01/29 03:18:42;;;;;;;;;70.75;46.50;;;;;0.54;96.68;98311.25;4987420;28;8857;-56
2021/01/29 03:21:18;;;;;;;;;58.25;43.75;;;;;0.54;96.88;98311.25;5017512;28;8846;-54
2021/01/29 03:23:56;;;;;;;;;61.25;45.50;;;;;0.51;97.15;98312.25;5011955;28;8859;-57
2021/01/29 03:26:36;;;;;;;;;66.25;47.50;;;;;0.55;96.56;98312.97;5012572;28;9643;-53
2021/01/29 03:29:10;;;;;;;;;54.25;43.00;;;;;0.62;96.50;98323.19;5026880;28;8854;-55
2021/01/29 03:31:42;;;;;;;;;51.50;42.00;;;;;0.71;96.79;98329.88;5025187;28;8945;-55
2021/01/29 03:34:20;;;;;;;;;73.50;52.75;;;;;0.63;95.94;98331.97;5027356;28;8890;-55
2021/01/29 03:36:59;;;;;;;;;95.00;68.00;;;;;0.76;96.26;98334.94;5011861;28;8838;-55
2021/01/29 03:39:36;;;;;;;;;55.75;42.50;;;;;0.69;96.40;98333.53;5027633;28;8859;-55
2021/01/29 03:42:30;;;;;;;;;84.75;64.00;;;;;0.73;95.84;98327.16;5013246;28;8949;-55
2021/01/29 03:45:14;;;;;;;;;83.00;58.00;;;;;0.64;96.36;98333.72;5011112;28;8835;-53
2021/01/29 03:48:17;;;;;;;;;66.25;48.00;;;;;0.48;96.42;98322.94;5025882;28;8882;-56
2021/01/29 03:51:05;;;;;;;;;52.25;42.00;;;;;0.50;96.21;98331.66;5016708;28;8911;-56
2021/01/29 03:53:53;;;;;;;;;66.50;44.50;;;;;0.43;96.93;98324.94;5047292;28;8840;-54
2021/01/29 03:56:39;;;;;;;;;57.75;45.00;;;;;0.65;96.25;98330.97;5047429;28;8872;-56
2021/01/29 03:59:24;;;;;;;;;78.50;54.25;;;;;0.39;96.20;98333.88;5024249;28;8851;-54
2021/01/29 04:02:18;;;;;;;;;73.50;49.50;;;;;0.44;96.46;98314.28;5013368;28;8962;-55
2021/01/29 04:05:00;;;;;;;;;64.50;43.50;;;;;0.54;96.14;98314.75;5027601;28;8851;-57
2021/01/29 04:07:51;;;;;;;;;57.25;41.75;;;;;0.43;96.78;98327.56;5023099;28;8844;-54
2021/01/29 04:10:31;;;;;;;;;54.50;37.50;;;;;0.67;96.54;98327.44;5026452;28;8863;-55
2021/01/29 04:13:27;;;;;;;;;52.25;40.25;;;;;0.63;96.32;98322.28;5011146;28;8874;-56
2021/01/29 04:15:55;;;;;;;;;63.25;36.75;;;;;0.58;95.67;98324.28;5027132;28;8846;-54
2021/01/29 04:18:51;;;;;;;;;61.00;42.75;;;;;0.44;96.20;98316.91;5011969;28;8835;-57
2021/01/29 04:21:39;;;;;;;;;47.00;34.50;;;;;0.47;96.38;98318.56;5011751;28;8854;-56
2021/01/29 04:24:15;;;;;;;;;66.50;48.25;;;;;0.64;96.25;98317.88;5027200;28;9293;-55
2021/01/29 04:27:05;;;;;;;;;66.75;49.00;;;;;0.68;96.11;98323.88;5026683;28;8985;-55
2021/01/29 04:29:47;;;;;;;;;64.75;44.50;;;;;0.44;95.91;98327.47;5022043;28;8906;-56
2021/01/29 04:32:20;;;;;;;;;65.75;45.25;;;;;0.68;96.06;98318.59;5012051;28;8871;-57
2021/01/29 04:34:53;;;;;;;;;52.75;40.50;;;;;0.56;95.87;98312.91;5014616;28;8835;-56
2021/01/29 04:37:26;;;;;;;;;57.75;42.00;;;;;0.45;96.13;98312.53;5015558;28;8866;-56
2021/01/29 04:40:07;;;;;;;;;56.25;40.50;;;;;0.43;96.45;98287.97;5014591;28;8873;-55
2021/01/29 04:42:53;;;;;;;;;56.25;39.50;;;;;0.38;96.61;98274.09;4995236;28;8856;-55
2021/01/29 04:45:40;;;;;;;;;60.75;39.00;;;;;0.41;96.57;98268.69;4997475;28;8862;-57
2021/01/29 04:48:37;;;;;;;;;58.00;42.00;;;;;0.27;95.81;98279.00;5015347;28;8843;-53
2021/01/29 04:52:19;;;;;;;;;50.00;43.50;;;;;0.16;96.70;98296.13;5015513;28;8862;-56
2021/01/29 04:55:54;;;;;;;;;52.75;44.00;;;;;0.13;97.11;98290.09;4955030;28;8852;-54
2021/01/29 04:58:35;;;;;;;;;56.25;41.00;;;;;0.24;96.56;98311.66;4957678;28;8856;-51
2021/01/29 05:01:48;;;;;;;;;69.25;48.25;;;;;0.24;96.49;98316.94;5030719;28;8929;-55
2021/01/29 05:05:07;;;;;;;;;73.00;49.00;;;;;0.19;96.80;98332.09;5015887;28;8876;-51
2021/01/29 05:07:47;;;;;;;;;69.50;49.00;;;;;0.38;96.35;98348.88;4970903;28;8855;-53
2021/01/29 05:11:02;;;;;;;;;57.00;45.50;;;;;0.25;96.22;98347.66;5014150;28;9406;-55
2021/01/29 05:14:12;;;;;;;;;59.75;44.75;;;;;0.38;97.27;98348.03;5030706;28;8834;-51
2021/01/29 05:16:58;;;;;;;;;66.00;41.00;;;;;0.31;97.02;98370.31;4997860;28;8864;-54
2021/01/29 05:20:03;;;;;;;;;65.25;48.75;;;;;0.35;96.98;98372.75;5014671;28;8866;-55
2021/01/29 05:22:56;;;;;;;;;72.75;50.25;;;;;0.35;96.76;98371.91;5014771;28;8831;-51
2021/01/29 05:26:21;;;;;;;;;77.50;60.00;;;;;0.36;97.31;98373.63;5030561;28;8863;-51
2021/01/29 05:29:44;;;;;;;;;56.00;38.50;;;;;0.21;96.63;98375.97;5014645;28;8882;-53
2021/01/29 05:32:51;;;;;;;;;77.50;59.00;;;;;0.33;96.79;98371.97;5014661;28;8867;-55
2021/01/29 05:35:43;;;;;;;;;68.75;49.75;;;;;0.27;97.05;98381.94;5014494;28;8867;-56
2021/01/29 05:38:42;;;;;;;;;78.50;51.50;;;;;0.12;97.25;98405.38;5014576;28;8847;-52
2021/01/29 05:42:08;;;;;;;;;70.00;49.00;;;;;0.10;97.53;98412.47;5014631;28;8862;-52
2021/01/29 05:45:03;;;;;;;;;74.25;50.50;;;;;0.16;96.82;98400.84;4999561;28;8854;-52
2021/01/29 05:48:23;;;;;;;;;69.50;48.25;;;;;0.20;97.66;98389.22;5029939;28;8853;-51
2021/01/29 05:51:31;;;;;;;;;75.50;56.50;;;;;0.18;97.63;98389.28;5014396;28;8891;-52
2021/01/29 05:54:12;;;;;;;;;73.75;53.75;;;;;0.03;97.89;98400.47;5014614;28;8865;-54
2021/01/29 05:57:19;;;;;;;;;66.50;46.50;;;;;0.00;97.65;98408.50;5029869;28;8961;-53
2021/01/29 06:00:03;;;;;;;;;84.50;57.00;;;;;-0.11;98.07;98408.06;5029263;28;8885;-53
2021/01/29 06:03:09;;;;;;;;;72.50;51.25;;;;;-0.14;98.20;98413.44;5014052;28;8858;-54
2021/01/29 06:06:25;;;;;;;;;86.00;60.50;;;;;-0.09;97.58;98424.69;5029574;28;9532;-53
2021/01/29 06:09:04;;;;;;;;;82.50;56.00;;;;;-0.05;97.41;98418.38;5013779;28;8863;-55
2021/01/29 06:12:05;;;;;;;;;76.75;51.25;;;;;-0.15;97.98;98409.09;5014246;28;9622;-54
2021/01/29 06:15:02;;;;;;;;;74.00;51.25;;;;;-0.23;98.36;98425.22;5014018;28;8881;-53
2021/01/29 06:18:13;;;;;;;;;72.25;46.00;;;;;-0.15;98.41;98432.84;5013783;28;8843;-55
2021/01/29 06:21:07;;;;;;;;;78.00;56.00;;;;;-0.13;97.48;98430.97;5013858;28;8840;-54
2021/01/29 06:24:21;;;;;;;;;78.50;54.00;;;;;0.01;98.22;98418.13;5014097;28;8851;-55
2021/01/29 06:26:57;;;;;;;;;73.50;52.50;;;;;0.22;97.83;98419.06;5029590;28;8929;-54
2021/01/29 06:30:11;;;;;;;;;76.00;50.50;;;;;0.31;97.88;98415.19;5013733;28;8835;-55
2021/01/29 06:32:48;;;;;;;;;80.50;57.25;;;;;0.21;96.83;98405.00;5013694;28;8851;-55
2021/01/29 06:35:46;;;;;;;;;66.75;48.50;;;;;0.37;97.19;98409.66;5013988;28;8920;-56
2021/01/29 06:38:42;;;;;;;;;78.50;55.00;;;;;0.88;95.75;98418.97;5013810;28;8843;-54
2021/01/29 06:41:43;;;;;;;;;85.25;58.00;;;;;0.99;93.98;98419.34;5012845;28;8860;-52
2021/01/29 06:44:53;;;;;;;;;88.75;62.00;;;;;1.15;92.20;98414.25;5013278;28;8952;-51
2021/01/29 06:48:05;;;;;;;;;73.50;54.75;;;;;0.61;95.11;98413.94;5013319;28;8855;-55
2021/01/29 06:51:13;;;;;;;;;76.75;51.50;;;;;0.64;95.33;98416.44;5013768;28;9611;-56
2021/01/29 06:53:51;;;;;;;;;82.00;57.25;;;;;0.59;95.93;98414.91;5012406;28;8838;-51
2021/01/29 06:57:08;;;;;;;;;78.50;51.00;;;;;0.63;96.07;98406.81;5012446;28;9839;-55
2021/01/29 07:00:01;;;;;;;;;89.75;63.00;;;;;0.69;95.61;98413.63;5028961;28;8944;-55
2021/01/29 07:02:48;;;;;;;;;105.75;75.50;;;;;0.75;96.17;98409.84;5012679;28;8843;-55
2021/01/29 07:05:36;;;;;;;;;98.75;69.75;;;;;0.72;96.10;98409.97;5013226;28;8846;-55
2021/01/29 07:08:55;;;;;;;;;76.00;54.25;;;;;0.78;96.16;98409.72;5012167;28;8867;-54
2021/01/29 07:11:50;;;;;;;;;93.00;65.50;;;;;0.84;96.21;98409.44;5012663;28;9615;-54
2021/01/29 07:14:57;;;;;;;;;101.50;71.00;;;;;0.96;95.89;98416.84;5013160;28;8835;-51
2021/01/29 07:18:04;;;;;;;;;90.00;66.00;;;;;0.96;95.87;98421.28;5011794;28;8881;-55
2021/01/29 07:20:51;;;;;;;;;78.75;56.25;;;;;1.05;95.35;98419.13;5012217;28;8900;-54
2021/01/29 07:24:05;;;;;;;;;67.00;49.50;;;;;1.24;94.67;98413.03;5012998;28;8831;-56
2021/01/29 07:27:10;;;;;;;;;74.00;54.50;;;;;1.31;94.80;98411.81;5012523;28;8900;-55
2021/01/29 07:30:22;;;;;;;;;83.00;58.00;;;;;1.22;95.02;98409.56;5010938;28;8878;-53
2021/01/29 07:33:10;;;;;;;;;84.50;58.75;;;;;1.28;94.08;98419.88;5011558;28;8855;-53
2021/01/29 07:35:49;;;;;;;;;75.50;54.50;;;;;1.36;93.99;98420.38;5028033;28;9616;-51
2021/01/29 07:38:58;;;;;;;;;75.00;49.00;;;;;1.34;94.19;98419.59;5012588;28;8871;-54
2021/01/29 07:42:08;;;;;;;;;70.25;50.25;;;;;1.41;93.00;98426.31;5012225;28;8866;-54
2021/01/29 07:44:58;;;;;;;;;56.75;45.00;;;;;1.31;94.14;98414.44;5012287;28;8867;-56
2021/01/29 07:48:00;;;;;;;;;80.75;55.75;;;;;1.42;93.63;98412.19;5011959;28;8866;-57
2021/01/29 07:50:49;;;;;;;;;78.00;57.25;;;;;1.59;94.29;98407.94;5012086;28;9005;-55
2021/01/29 07:54:22;;;;;;;;;80.25;55.00;;;;;1.50;94.20;98403.88;5012589;28;8930;-55
2021/01/29 07:57:48;;;;;;;;;78.50;57.50;;;;;1.62;94.21;98398.03;4997999;28;8887;-53
2021/01/29 08:00:48;;;;;;;;;73.50;55.50;;;;;1.63;93.86;98377.75;4991660;28;8855;-51
2021/01/29 08:04:07;;;;;;;;;77.50;56.25;;;;;1.66;93.23;98377.59;4992517;28;8829;-55
2021/01/29 08:07:04;;;;;;;;;106.25;75.25;;;;;1.70;93.37;98374.75;4992070;28;8869;-53
2021/01/29 08:09:37;;;;;;;;;79.00;55.25;;;;;1.84;92.59;98378.53;4989916;28;8913;-54
2021/01/29 08:12:11;;;;;;;;;73.50;53.50;;;;;1.77;91.98;98377.97;4991391;28;8881;-51
2021/01/29 08:14:46;;;;;;;;;75.00;52.00;;;;;1.86;92.82;98390.75;4997720;28;9402;-52
2021/01/29 08:18:29;;;;;;;;;85.00;59.00;;;;;1.91;91.93;98394.03;5011024;28;8875;-53
2021/01/29 08:21:33;;;;;;;;;75.25;52.75;;;;;1.83;91.84;98385.59;5009374;28;8865;-51
2021/01/29 08:24:31;;;;;;;;;76.75;54.75;;;;;1.86;92.29;98385.47;5011858;28;8905;-54
2021/01/29 08:27:19;;;;;;;;;81.50;57.75;;;;;1.98;91.35;98378.75;5011609;28;8822;-53
2021/01/29 08:29:45;;;;;;;;;76.25;55.25;;;;;2.04;91.20;98373.16;5012039;28;8855;-52
2021/01/29 08:32:53;;;;;;;;;66.25;50.50;;;;;2.09;90.96;98378.22;5011897;28;9682;-52
2021/01/29 08:35:50;;;;;;;;;73.00;53.75;;;;;2.30;90.07;98378.97;5012023;28;8965;-51
2021/01/29 08:38:43;;;;;;;;;68.75;48.75;;;;;2.17;89.18;98384.00;5010923;28;8847;-51
2021/01/29 08:41:54;;;;;;;;;64.00;44.50;;;;;2.29;90.89;98372.81;5011841;28;8862;-53
2021/01/29 08:45:14;;;;;;;;;84.75;55.50;;;;;2.30;90.65;98363.09;5010816;28;8866;-53
2021/01/29 08:48:07;;;;;;;;;66.25;51.50;;;;;2.47;89.89;98370.19;5027202;28;8889;-52
2021/01/29 08:51:05;;;;;;;;;70.50;48.50;;;;;2.50;90.42;98375.31;5026761;28;8857;-53
2021/01/29 08:54:09;;;;;;;;;64.50;49.25;;;;;2.34;89.80;98368.16;5011910;28;8884;-50
2021/01/29 08:57:14;;;;;;;;;65.25;47.50;;;;;2.51;90.17;98385.00;5011714;28;8854;-55
2021/01/29 08:59:42;;;;;;;;;70.50;52.00;;;;;2.42;90.13;98387.19;5011394;28;8861;-50
2021/01/29 09:02:28;;;;;;;;;66.00;48.00;;;;;2.32;90.00;98388.56;5010530;28;8870;-51
2021/01/29 09:05:03;;;;;;;;;66.75;50.00;;;;;2.34;89.83;98392.00;5011763;28;8851;-51
2021/01/29 09:07:35;;;;;;;;;69.00;45.00;;;;;2.47;89.88;98386.06;5011630;28;8859;-52
2021/01/29 09:10:13;;;;;;;;;72.25;50.50;;;;;2.49;90.31;98394.81;5011591;28;9636;-52
2021/01/29 09:12:43;;;;;;;;;68.75;52.00;;;;;2.56;89.48;98396.22;5011536;28;8850;-51
2021/01/29 09:15:45;;;;;;;;;76.75;57.75;;;;;2.59;89.45;98390.78;5011641;28;8835;-55
2021/01/29 09:18:31;;;;;;;;;68.25;51.25;;;;;2.51;89.19;98385.00;5016093;28;8871;-52
2021/01/29 09:21:17;;;;;;;;;86.75;64.50;;;;;2.44;90.48;98380.94;5030485;28;8823;-53
2021/01/29 09:24:05;;;;;;;;;76.50;55.25;;;;;2.41;90.53;98380.16;5015235;28;8863;-54
2021/01/29 09:27:06;;;;;;;;;76.00;56.00;;;;;2.65;89.74;98374.56;5014368;28;8863;-56
2021/01/29 09:29:52;;;;;;;;;69.25;53.50;;;;;2.70;89.75;98380.47;5014863;28;8869;-53
2021/01/29 09:32:45;;;;;;;;;84.75;60.75;;;;;2.64;90.20;98372.84;5030079;28;9626;-52
2021/01/29 09:35:41;;;;;;;;;51.75;36.00;;;;;2.74;89.88;98362.63;5013841;28;8978;-53
2021/01/29 09:38:16;;;;;;;;;71.50;53.00;;;;;2.84;89.10;98359.44;5014059;28;8862;-53
2021/01/29 09:41:03;;;;;;;;;66.00;55.25;;;;;2.69;89.81;98360.22;5029747;28;8842;-54
2021/01/29 09:43:47;;;;;;;;;72.75;54.00;;;;;2.57;90.88;98364.34;5014556;28;8898;-52
2021/01/29 09:46:26;;;;;;;;;73.00;53.75;;;;;2.70;90.16;98353.97;5014881;28;8835;-52
2021/01/29 09:49:31;;;;;;;;;70.75;51.50;;;;;2.89;90.12;98347.72;5014723;28;8854;-53
2021/01/29 09:52:34;;;;;;;;;71.00;47.75;;;;;2.74;90.11;98336.13;5013465;28;8883;-53
2021/01/29 09:55:11;;;;;;;;;67.00;50.75;;;;;3.00;89.80;98337.41;5014796;28;8879;-55
2021/01/29 09:58:17;;;;;;;;;74.75;57.25;;;;;3.03;89.80;98332.81;5014210;28;8859;-52
2021/01/29 10:01:13;;;;;;;;;77.25;56.50;;;;;2.82;91.26;98318.91;5013856;28;8847;-52
2021/01/29 10:04:10;;;;;;;;;64.00;44.00;;;;;2.90;90.65;98315.84;5013212;28;8943;-55
2021/01/29 10:06:57;;;;;;;;;77.00;57.00;;;;;2.93;90.41;98291.84;5013410;28;8819;-56
2021/01/29 10:09:36;;;;;;;;;87.00;66.75;;;;;2.79;91.10;98307.59;5029905;28;8861;-55
2021/01/29 10:12:26;;;;;;;;;91.25;67.25;;;;;2.90;90.83;98301.72;5029860;28;8855;-53
2021/01/29 10:15:17;;;;;;;;;91.75;68.00;;;;;2.86;91.11;98287.78;5029354;28;9560;-52
2021/01/29 10:18:17;;;;;;;;;87.50;63.75;;;;;2.82;90.94;98286.25;5029952;28;8871;-54
2021/01/29 10:20:44;;;;;;;;;80.75;57.75;;;;;2.73;91.42;98287.56;5029295;28;8928;-54
2021/01/29 10:23:39;;;;;;;;;85.25;62.50;;;;;2.64;91.91;98283.59;5014246;28;9671;-50
2021/01/29 10:26:24;;;;;;;;;84.00;62.75;;;;;2.74;91.70;98278.69;5029244;28;8847;-53
2021/01/29 10:29:05;;;;;;;;;79.50;59.50;;;;;2.74;91.86;98277.81;5013710;28;8862;-54
2021/01/29 10:32:02;;;;;;;;;80.75;56.25;;;;;2.99;92.45;98278.25;5011539;28;8842;-55
2021/01/29 10:34:41;;;;;;;;;86.00;64.50;;;;;2.89;91.39;98274.38;5013480;28;8847;-53
2021/01/29 10:37:30;;;;;;;;;68.25;50.50;;;;;3.03;91.08;98273.66;5013350;28;8863;-52
2021/01/29 10:40:21;;;;;;;;;85.00;62.25;;;;;3.08;90.53;98274.22;5012559;28;8877;-54
2021/01/29 10:43:01;;;;;;;;;79.75;60.25;;;;;3.26;91.17;98267.06;5013489;28;8884;-51
2021/01/29 10:45:37;;;;;;;;;97.25;70.50;;;;;3.19;90.79;98253.31;5012956;28;8859;-53
2021/01/29 10:48:39;;;;;;;;;78.00;54.50;;;;;3.26;91.16;98256.47;5013287;28;9623;-51
2021/01/29 10:51:35;;;;;;;;;72.00;53.50;;;;;3.42;89.85;98259.13;5013285;28;8862;-55
2021/01/29 10:54:05;;;;;;;;;71.25;53.25;;;;;3.61;89.07;98251.88;5012744;28;8951;-51
2021/01/29 10:56:50;;;;;;;;;72.75;52.00;;;;;3.61;88.22;98249.22;5013290;28;8843;-51
2021/01/29 10:59:49;;;;;;;;;62.50;46.75;;;;;3.41;88.85;98246.81;5013389;28;8863;-55
2021/01/29 11:02:41;;;;;;;;;72.00;57.25;;;;;3.31;89.07;98249.13;5013087;28;8882;-51
2021/01/29 11:05:24;;;;;;;;;71.75;50.00;;;;;3.44;89.74;98251.94;5028581;28;8887;-53
2021/01/29 11:08:00;;;;;;;;;70.75;55.00;;;;;3.60;89.12;98250.13;5028058;28;8851;-52
2021/01/29 11:10:31;;;;;;;;;58.00;43.50;;;;;3.69;88.95;98249.63;5028597;28;8961;-54
2021/01/29 11:13:05;;;;;;;;;70.75;47.75;;;;;3.74;88.87;98255.53;5028246;28;8842;-52
2021/01/29 11:15:57;;;;;;;;;78.50;56.00;;;;;3.61;89.00;98249.22;5008647;28;8853;-53
2021/01/29 11:18:30;;;;;;;;;70.50;51.50;;;;;3.47;88.71;98251.78;5005546;28;8877;-54
2021/01/29 11:21:23;;;;;;;;;75.50;57.00;;;;;3.83;88.78;98258.59;4992872;28;8857;-54
2021/01/29 11:24:09;;;;;;;;;74.75;55.50;;;;;3.93;88.61;98249.16;4993872;28;8841;-52
2021/01/29 11:27:05;;;;;;;;;70.75;55.75;;;;;3.81;89.06;98265.78;4993450;28;8864;-51
2021/01/29 11:30:12;;;;;;;;;71.75;53.75;;;;;3.81;89.06;98277.25;4993300;28;8849;-52
2021/01/29 11:32:44;;;;;;;;;68.00;51.50;;;;;3.76;89.64;98270.50;4993468;28;8881;-53
2021/01/29 11:35:21;;;;;;;;;75.25;56.25;;;;;3.70;90.20;98279.69;5008130;28;8996;-53
2021/01/29 11:38:10;;;;;;;;;71.75;51.25;;;;;3.62;89.44;98282.75;5008166;28;8854;-54
2021/01/29 11:40:57;;;;;;;;;67.50;54.75;;;;;3.57;89.92;98284.81;4992744;28;8849;-55
2021/01/29 11:43:36;;;;;;;;;79.75;57.50;;;;;3.56;90.36;98274.31;5008132;28;8939;-51
2021/01/29 11:47:11;;;;;;;;;64.00;48.00;;;;;3.87;89.41;98268.09;4992667;28;8864;-50
2021/01/29 11:50:07;;;;;;;;;70.75;53.25;;;;;3.64;89.80;98275.56;4991378;28;8921;-51
2021/01/29 11:52:43;;;;;;;;;79.50;58.00;;;;;3.74;90.19;98263.50;5006246;28;8896;-56
2021/01/29 11:55:46;;;;;;;;;77.25;54.25;;;;;3.85;88.88;98262.03;4992792;28;8960;-55
2021/01/29 11:58:34;;;;;;;;;98.00;69.50;;;;;3.68;89.69;98257.66;4993174;28;8846;-54
2021/01/29 12:01:31;;;;;;;;;83.00;60.00;;;;;3.77;90.13;98251.00;4992174;28;8884;-54
2021/01/29 12:04:30;;;;;;;;;86.50;63.25;;;;;3.60;90.65;98243.97;4992887;28;8885;-50
2021/01/29 12:07:16;;;;;;;;;71.50;52.25;;;;;3.60;90.40;98244.84;4992290;28;8884;-56
2021/01/29 12:10:10;;;;;;;;;97.50;69.50;;;;;3.77;91.92;98237.72;5007922;28;8884;-55
2021/01/29 12:13:09;;;;;;;;;91.25;66.50;;;;;3.71;91.80;98234.47;5007278;28;9610;-56
2021/01/29 12:15:53;;;;;;;;;71.00;52.00;;;;;3.78;91.50;98237.63;5022155;28;9674;-57
2021/01/29 12:18:23;;;;;;;;;72.75;54.75;;;;;3.80;91.80;98226.94;5017672;28;8874;-54
2021/01/29 12:20:50;;;;;;;;;64.75;48.75;;;;;3.78;91.38;98218.19;5047050;28;9565;-53
2021/01/29 12:23:40;;;;;;;;;60.00;45.75;;;;;3.71;91.37;98215.91;5035669;28;8859;-51
2021/01/29 12:26:41;;;;;;;;;65.25;49.00;;;;;3.68;91.90;98208.09;5031516;28;8871;-54
2021/01/29 12:29:33;;;;;;;;;67.50;49.00;;;;;3.56;91.54;98200.84;5031605;28;8840;-50
2021/01/29 12:32:26;;;;;;;;;71.75;50.75;;;;;3.58;91.93;98201.63;5017258;28;8997;-51
2021/01/29 12:35:24;;;;;;;;;76.00;55.25;;;;;3.64;93.08;98195.97;5012990;28;8841;-53
2021/01/29 12:38:00;;;;;;;;;76.75;54.75;;;;;3.48;92.66;98192.47;4999921;28;8827;-51
2021/01/29 12:40:49;;;;;;;;;72.25;51.25;;;;;3.60;92.95;98185.59;5012142;28;8851;-51
2021/01/29 12:43:45;;;;;;;;;65.00;51.50;;;;;3.45;93.65;98179.34;5011543;28;8861;-55
2021/01/29 12:46:41;;;;;;;;;81.25;59.00;;;;;3.45;93.40;98164.31;5010785;28;8835;-52
2021/01/29 12:49:46;;;;;;;;;104.50;73.50;;;;;3.35;94.27;98160.47;5010624;28;8854;-50
2021/01/29 12:52:21;;;;;;;;;117.25;89.50;;;;;3.45;94.47;98150.16;5011659;28;8873;-53
2021/01/29 12:54:55;;;;;;;;;155.25;115.00;;;;;3.59;94.60;98146.75;5014031;28;8851;-53
2021/01/29 12:57:28;;;;;;;;;191.75;137.75;;;;;3.57;94.38;98135.34;5038850;28;8841;-49
2021/01/29 13:00:16;;;;;;;;;182.75;127.00;;;;;3.53;95.01;98129.38;5050256;28;8954;-51
2021/01/29 13:03:10;;;;;;;;;118.50;87.50;;;;;3.45;95.22;98128.94;5050030;28;8862;-53
2021/01/29 13:06:31;;;;;;;;;142.00;108.50;;;;;3.59;95.19;98128.16;5034680;28;8852;-51
2021/01/29 13:09:38;;;;;;;;;105.25;74.25;;;;;3.45;95.71;98121.88;5024311;28;8844;-51
2021/01/29 13:12:51;;;;;;;;;89.75;66.75;;;;;3.59;95.96;98113.09;5050225;28;8962;-52